sensor_id;sensor_type;location;lat;lon;timestamp;temperature;humidity
6178;DHT22;3122;48.208;11.174;2022-11-13T00:04:37;4.00;45.50
6178;DHT22;3122;48.208;11.174;2022-11-13T00:09:37;4.00;43.30
6178;DHT22;3122;48.208;11.174;2022-11-13T00:14:38;3.90;43.00
6178;DHT22;3122;48.208;11.174;2022-11-13T00:19:38;4.00;42.60
6178;DHT22;3122;48.208;11.174;2022-11-13T00:24:39;4.00;43.10
6178;DHT22;3122;48.208;11.174;2022-11-13T00:29:40;4.00;42.50
6178;DHT22;3122;48.208;11.174;2022-11-13T00:34:40;4.00;43.30
6178;DHT22;3122;48.208;11.174;2022-11-13T00:39:41;3.90;48.80
6178;DHT22;3122;48.208;11.174;2022-11-13T00:44:41;3.90;46.70
6178;DHT22;3122;48.208;11.174;2022-11-13T00:49:42;3.80;44.90
6178;DHT22;3122;48.208;11.174;2022-11-13T00:54:42;3.80;46.50
6178;DHT22;3122;48.208;11.174;2022-11-13T00:59:43;3.80;47.00
6178;DHT22;3122;48.208;11.174;2022-11-13T01:04:44;3.70;45.90
6178;DHT22;3122;48.208;11.174;2022-11-13T01:09:49;3.80;46.40
6178;DHT22;3122;48.208;11.174;2022-11-13T01:14:49;3.60;45.00
6178;DHT22;3122;48.208;11.174;2022-11-13T01:19:50;3.60;44.80
6178;DHT22;3122;48.208;11.174;2022-11-13T01:24:50;3.50;45.10
6178;DHT22;3122;48.208;11.174;2022-11-13T01:29:51;3.40;46.00
6178;DHT22;3122;48.208;11.174;2022-11-13T01:34:52;3.50;45.00
6178;DHT22;3122;48.208;11.174;2022-11-13T01:39:52;3.40;45.40
6178;DHT22;3122;48.208;11.174;2022-11-13T01:44:56;3.40;45.00
6178;DHT22;3122;48.208;11.174;2022-11-13T01:50:00;3.40;45.60
6178;DHT22;3122;48.208;11.174;2022-11-13T01:55:13;3.40;45.50
6178;DHT22;3122;48.208;11.174;2022-11-13T02:00:14;3.40;45.20
6178;DHT22;3122;48.208;11.174;2022-11-13T02:05:15;3.40;45.50
6178;DHT22;3122;48.208;11.174;2022-11-13T02:10:16;3.40;47.10
6178;DHT22;3122;48.208;11.174;2022-11-13T02:15:20;3.40;48.00
6178;DHT22;3122;48.208;11.174;2022-11-13T02:20:39;3.40;46.80
6178;DHT22;3122;48.208;11.174;2022-11-13T02:25:42;3.40;50.30
6178;DHT22;3122;48.208;11.174;2022-11-13T02:30:44;3.40;61.70
6178;DHT22;3122;48.208;11.174;2022-11-13T02:35:45;3.30;60.30
6178;DHT22;3122;48.208;11.174;2022-11-13T02:40:46;3.40;56.00
6178;DHT22;3122;48.208;11.174;2022-11-13T02:45:47;3.40;55.10
6178;DHT22;3122;48.208;11.174;2022-11-13T02:50:48;3.40;51.10
6178;DHT22;3122;48.208;11.174;2022-11-13T02:55:48;3.30;52.90
6178;DHT22;3122;48.208;11.174;2022-11-13T03:00:49;3.40;53.30
6178;DHT22;3122;48.208;11.174;2022-11-13T03:05:49;3.40;54.20
6178;DHT22;3122;48.208;11.174;2022-11-13T03:10:54;3.40;53.40
6178;DHT22;3122;48.208;11.174;2022-11-13T03:15:54;3.40;50.70
6178;DHT22;3122;48.208;11.174;2022-11-13T03:20:55;3.30;49.80
6178;DHT22;3122;48.208;11.174;2022-11-13T03:25:55;3.40;50.50
6178;DHT22;3122;48.208;11.174;2022-11-13T03:30:56;3.30;50.00
6178;DHT22;3122;48.208;11.174;2022-11-13T03:35:57;3.30;50.10
6178;DHT22;3122;48.208;11.174;2022-11-13T03:40:58;3.30;50.40
6178;DHT22;3122;48.208;11.174;2022-11-13T03:45:58;3.30;49.60
6178;DHT22;3122;48.208;11.174;2022-11-13T03:50:59;3.30;50.70
6178;DHT22;3122;48.208;11.174;2022-11-13T03:56:00;3.20;50.40
6178;DHT22;3122;48.208;11.174;2022-11-13T04:01:01;3.10;50.70
6178;DHT22;3122;48.208;11.174;2022-11-13T04:06:01;3.00;48.90
6178;DHT22;3122;48.208;11.174;2022-11-13T04:11:10;3.10;49.10
6178;DHT22;3122;48.208;11.174;2022-11-13T04:16:11;3.00;50.00
6178;DHT22;3122;48.208;11.174;2022-11-13T04:21:11;3.00;48.90
6178;DHT22;3122;48.208;11.174;2022-11-13T04:26:12;3.00;49.30
6178;DHT22;3122;48.208;11.174;2022-11-13T04:31:12;3.00;49.90
6178;DHT22;3122;48.208;11.174;2022-11-13T04:36:13;2.90;49.00
6178;DHT22;3122;48.208;11.174;2022-11-13T04:41:13;2.90;49.60
6178;DHT22;3122;48.208;11.174;2022-11-13T04:46:33;2.90;50.30
6178;DHT22;3122;48.208;11.174;2022-11-13T04:51:33;2.80;49.50
6178;DHT22;3122;48.208;11.174;2022-11-13T04:56:34;2.90;50.40
6178;DHT22;3122;48.208;11.174;2022-11-13T05:01:35;2.80;50.20
6178;DHT22;3122;48.208;11.174;2022-11-13T05:06:35;2.70;50.40
6178;DHT22;3122;48.208;11.174;2022-11-13T05:11:36;2.70;50.80
6178;DHT22;3122;48.208;11.174;2022-11-13T05:16:37;2.70;52.90
6178;DHT22;3122;48.208;11.174;2022-11-13T05:21:38;2.70;51.90
6178;DHT22;3122;48.208;11.174;2022-11-13T05:26:39;2.70;51.10
6178;DHT22;3122;48.208;11.174;2022-11-13T05:31:40;2.60;49.80
6178;DHT22;3122;48.208;11.174;2022-11-13T05:36:40;2.70;50.30
6178;DHT22;3122;48.208;11.174;2022-11-13T05:41:41;2.60;49.30
6178;DHT22;3122;48.208;11.174;2022-11-13T05:46:41;2.60;49.10
6178;DHT22;3122;48.208;11.174;2022-11-13T05:51:42;2.60;47.80
6178;DHT22;3122;48.208;11.174;2022-11-13T05:56:43;2.60;47.60
6178;DHT22;3122;48.208;11.174;2022-11-13T06:01:43;2.50;47.00
6178;DHT22;3122;48.208;11.174;2022-11-13T06:06:45;2.50;45.40
6178;DHT22;3122;48.208;11.174;2022-11-13T06:11:45;2.50;45.20
6178;DHT22;3122;48.208;11.174;2022-11-13T06:16:46;2.40;44.90
6178;DHT22;3122;48.208;11.174;2022-11-13T06:21:47;2.20;43.80
6178;DHT22;3122;48.208;11.174;2022-11-13T06:26:47;2.30;43.20
6178;DHT22;3122;48.208;11.174;2022-11-13T06:31:48;2.30;43.30
6178;DHT22;3122;48.208;11.174;2022-11-13T06:36:48;2.30;43.60
6178;DHT22;3122;48.208;11.174;2022-11-13T06:41:49;2.20;41.80
6178;DHT22;3122;48.208;11.174;2022-11-13T06:46:49;2.20;42.40
6178;DHT22;3122;48.208;11.174;2022-11-13T06:51:50;2.20;43.30
6178;DHT22;3122;48.208;11.174;2022-11-13T06:56:51;2.30;44.00
6178;DHT22;3122;48.208;11.174;2022-11-13T07:01:51;2.20;42.40
6178;DHT22;3122;48.208;11.174;2022-11-13T07:06:52;2.30;42.80
6178;DHT22;3122;48.208;11.174;2022-11-13T07:11:52;2.20;43.10
6178;DHT22;3122;48.208;11.174;2022-11-13T07:16:53;2.20;42.40
6178;DHT22;3122;48.208;11.174;2022-11-13T07:21:53;2.30;42.70
6178;DHT22;3122;48.208;11.174;2022-11-13T07:26:54;2.30;41.20
6178;DHT22;3122;48.208;11.174;2022-11-13T07:31:55;2.40;41.70
6178;DHT22;3122;48.208;11.174;2022-11-13T07:36:55;2.40;41.70
6178;DHT22;3122;48.208;11.174;2022-11-13T07:41:56;2.50;43.30
6178;DHT22;3122;48.208;11.174;2022-11-13T07:46:56;2.70;44.50
6178;DHT22;3122;48.208;11.174;2022-11-13T07:51:57;2.70;44.10
6178;DHT22;3122;48.208;11.174;2022-11-13T07:56:57;2.70;42.50
6178;DHT22;3122;48.208;11.174;2022-11-13T08:01:58;2.80;42.50
6178;DHT22;3122;48.208;11.174;2022-11-13T08:06:59;2.80;42.90
6178;DHT22;3122;48.208;11.174;2022-11-13T08:11:59;2.80;42.80
6178;DHT22;3122;48.208;11.174;2022-11-13T08:17:00;2.80;43.20
6178;DHT22;3122;48.208;11.174;2022-11-13T08:22:00;2.80;43.40
6178;DHT22;3122;48.208;11.174;2022-11-13T08:27:01;2.90;43.20
6178;DHT22;3122;48.208;11.174;2022-11-13T08:32:03;2.90;43.40
6178;DHT22;3122;48.208;11.174;2022-11-13T08:37:03;3.00;43.30
6178;DHT22;3122;48.208;11.174;2022-11-13T08:42:04;3.10;43.90
6178;DHT22;3122;48.208;11.174;2022-11-13T08:47:05;3.20;43.30
6178;DHT22;3122;48.208;11.174;2022-11-13T08:52:05;3.20;42.90
6178;DHT22;3122;48.208;11.174;2022-11-13T08:57:06;3.20;41.80
6178;DHT22;3122;48.208;11.174;2022-11-13T09:02:08;3.40;41.80
6178;DHT22;3122;48.208;11.174;2022-11-13T09:07:08;3.40;42.40
6178;DHT22;3122;48.208;11.174;2022-11-13T09:12:10;3.60;42.70
6178;DHT22;3122;48.208;11.174;2022-11-13T09:17:11;3.60;42.10
6178;DHT22;3122;48.208;11.174;2022-11-13T09:22:11;3.60;42.30
6178;DHT22;3122;48.208;11.174;2022-11-13T09:27:12;3.60;41.80
6178;DHT22;3122;48.208;11.174;2022-11-13T09:32:15;3.60;43.60
6178;DHT22;3122;48.208;11.174;2022-11-13T09:37:16;3.60;41.70
6178;DHT22;3122;48.208;11.174;2022-11-13T09:42:23;3.80;41.70
6178;DHT22;3122;48.208;11.174;2022-11-13T09:47:30;3.70;40.00
6178;DHT22;3122;48.208;11.174;2022-11-13T09:52:35;3.80;39.10
6178;DHT22;3122;48.208;11.174;2022-11-13T10:13:50;4.00;39.40
6178;DHT22;3122;48.208;11.174;2022-11-13T10:18:53;4.00;37.40
6178;DHT22;3122;48.208;11.174;2022-11-13T10:23:55;4.10;38.00
6178;DHT22;3122;48.208;11.174;2022-11-13T10:29:13;4.10;36.70
6178;DHT22;3122;48.208;11.174;2022-11-13T10:34:15;4.10;36.00
6178;DHT22;3122;48.208;11.174;2022-11-13T10:39:16;4.20;36.60
6178;DHT22;3122;48.208;11.174;2022-11-13T10:44:24;4.20;34.70
6178;DHT22;3122;48.208;11.174;2022-11-13T10:49:26;4.10;33.10
6178;DHT22;3122;48.208;11.174;2022-11-13T10:54:31;4.10;34.80
6178;DHT22;3122;48.208;11.174;2022-11-13T10:59:42;4.20;33.80
6178;DHT22;3122;48.208;11.174;2022-11-13T11:04:43;4.30;32.90
6178;DHT22;3122;48.208;11.174;2022-11-13T11:09:45;4.40;33.60
6178;DHT22;3122;48.208;11.174;2022-11-13T11:20:15;4.80;31.80
6178;DHT22;3122;48.208;11.174;2022-11-13T11:30:33;5.00;27.40
6178;DHT22;3122;48.208;11.174;2022-11-13T11:35:51;5.00;27.80
6178;DHT22;3122;48.208;11.174;2022-11-13T11:41:11;5.00;28.00
6178;DHT22;3122;48.208;11.174;2022-11-13T11:46:13;5.10;27.30
6178;DHT22;3122;48.208;11.174;2022-11-13T11:51:24;5.10;27.20
6178;DHT22;3122;48.208;11.174;2022-11-13T12:07:09;5.50;26.30
6178;DHT22;3122;48.208;11.174;2022-11-13T12:18:00;5.40;25.50
6178;DHT22;3122;48.208;11.174;2022-11-13T12:23:39;5.40;26.80
6178;DHT22;3122;48.208;11.174;2022-11-13T12:29:00;5.40;26.60
6178;DHT22;3122;48.208;11.174;2022-11-13T12:44:25;5.60;27.20
6178;DHT22;3122;48.208;11.174;2022-11-13T12:49:33;5.70;28.00
6178;DHT22;3122;48.208;11.174;2022-11-13T12:54:35;5.90;29.80
6178;DHT22;3122;48.208;11.174;2022-11-13T12:59:40;6.10;29.70
6178;DHT22;3122;48.208;11.174;2022-11-13T13:15:36;6.50;29.50
6178;DHT22;3122;48.208;11.174;2022-11-13T13:20:40;6.60;29.80
6178;DHT22;3122;48.208;11.174;2022-11-13T13:25:44;6.70;29.70
6178;DHT22;3122;48.208;11.174;2022-11-13T13:31:01;6.70;28.80
6178;DHT22;3122;48.208;11.174;2022-11-13T13:46:47;6.90;29.60
6178;DHT22;3122;48.208;11.174;2022-11-13T13:51:50;6.90;29.10
6178;DHT22;3122;48.208;11.174;2022-11-13T13:56:56;6.90;28.80
6178;DHT22;3122;48.208;11.174;2022-11-13T14:01:59;6.90;29.40
6178;DHT22;3122;48.208;11.174;2022-11-13T14:07:01;6.90;29.40
6178;DHT22;3122;48.208;11.174;2022-11-13T14:12:04;6.90;28.20
6178;DHT22;3122;48.208;11.174;2022-11-13T14:17:08;6.90;28.10
6178;DHT22;3122;48.208;11.174;2022-11-13T14:22:10;6.90;28.00
6178;DHT22;3122;48.208;11.174;2022-11-13T14:27:14;6.90;27.90
6178;DHT22;3122;48.208;11.174;2022-11-13T14:32:23;6.90;28.10
6178;DHT22;3122;48.208;11.174;2022-11-13T14:37:32;6.90;27.50
6178;DHT22;3122;48.208;11.174;2022-11-13T14:42:36;6.90;27.40
6178;DHT22;3122;48.208;11.174;2022-11-13T14:47:37;6.80;28.10
6178;DHT22;3122;48.208;11.174;2022-11-13T14:52:38;6.70;27.60
6178;DHT22;3122;48.208;11.174;2022-11-13T14:57:47;6.70;28.00
6178;DHT22;3122;48.208;11.174;2022-11-13T15:02:48;6.60;27.80
6178;DHT22;3122;48.208;11.174;2022-11-13T15:07:48;6.50;28.00
6178;DHT22;3122;48.208;11.174;2022-11-13T15:12:50;6.40;28.20
6178;DHT22;3122;48.208;11.174;2022-11-13T15:17:51;6.40;28.40
6178;DHT22;3122;48.208;11.174;2022-11-13T15:22:54;6.20;29.00
6178;DHT22;3122;48.208;11.174;2022-11-13T15:27:54;6.10;28.60
6178;DHT22;3122;48.208;11.174;2022-11-13T15:32:56;6.00;28.00
6178;DHT22;3122;48.208;11.174;2022-11-13T15:37:58;5.90;28.60
6178;DHT22;3122;48.208;11.174;2022-11-13T15:42:59;6.00;29.40
6178;DHT22;3122;48.208;11.174;2022-11-13T15:48:00;6.00;29.60
6178;DHT22;3122;48.208;11.174;2022-11-13T15:53:01;5.80;28.70
6178;DHT22;3122;48.208;11.174;2022-11-13T15:58:03;5.90;29.60
6178;DHT22;3122;48.208;11.174;2022-11-13T16:03:03;5.80;30.00
6178;DHT22;3122;48.208;11.174;2022-11-13T16:08:12;5.60;29.40
6178;DHT22;3122;48.208;11.174;2022-11-13T16:13:13;5.40;29.40
6178;DHT22;3122;48.208;11.174;2022-11-13T16:18:21;5.40;30.00
6178;DHT22;3122;48.208;11.174;2022-11-13T16:23:22;5.30;31.10
6178;DHT22;3122;48.208;11.174;2022-11-13T16:28:22;5.20;31.30
6178;DHT22;3122;48.208;11.174;2022-11-13T16:33:23;5.10;30.50
6178;DHT22;3122;48.208;11.174;2022-11-13T16:38:24;5.00;30.70
6178;DHT22;3122;48.208;11.174;2022-11-13T16:43:24;4.90;30.90
6178;DHT22;3122;48.208;11.174;2022-11-13T16:48:25;4.90;30.80
6178;DHT22;3122;48.208;11.174;2022-11-13T16:53:25;4.70;30.70
6178;DHT22;3122;48.208;11.174;2022-11-13T16:58:26;4.60;31.30
6178;DHT22;3122;48.208;11.174;2022-11-13T17:03:27;4.40;32.10
6178;DHT22;3122;48.208;11.174;2022-11-13T17:08:27;4.40;31.90
6178;DHT22;3122;48.208;11.174;2022-11-13T17:13:28;4.30;32.70
6178;DHT22;3122;48.208;11.174;2022-11-13T17:18:28;4.20;31.80
6178;DHT22;3122;48.208;11.174;2022-11-13T17:23:29;4.20;32.30
6178;DHT22;3122;48.208;11.174;2022-11-13T17:28:30;4.10;32.80
6178;DHT22;3122;48.208;11.174;2022-11-13T17:33:31;4.00;32.40
6178;DHT22;3122;48.208;11.174;2022-11-13T17:38:31;4.00;32.70
6178;DHT22;3122;48.208;11.174;2022-11-13T17:43:36;3.90;32.80
6178;DHT22;3122;48.208;11.174;2022-11-13T17:48:37;3.80;31.10
6178;DHT22;3122;48.208;11.174;2022-11-13T17:53:38;3.80;31.10
6178;DHT22;3122;48.208;11.174;2022-11-13T17:58:40;3.70;31.40
6178;DHT22;3122;48.208;11.174;2022-11-13T18:03:42;3.70;32.10
6178;DHT22;3122;48.208;11.174;2022-11-13T18:08:43;3.60;31.10
6178;DHT22;3122;48.208;11.174;2022-11-13T18:13:45;3.40;30.00
6178;DHT22;3122;48.208;11.174;2022-11-13T18:18:48;3.50;29.60
6178;DHT22;3122;48.208;11.174;2022-11-13T18:23:55;3.40;29.30
6178;DHT22;3122;48.208;11.174;2022-11-13T18:28:57;3.40;29.20
6178;DHT22;3122;48.208;11.174;2022-11-13T18:33:59;3.40;28.60
6178;DHT22;3122;48.208;11.174;2022-11-13T18:39:01;3.40;29.80
6178;DHT22;3122;48.208;11.174;2022-11-13T18:44:02;3.50;29.20
6178;DHT22;3122;48.208;11.174;2022-11-13T18:49:03;3.50;30.10
6178;DHT22;3122;48.208;11.174;2022-11-13T18:54:03;3.60;32.70
6178;DHT22;3122;48.208;11.174;2022-11-13T18:59:04;3.60;35.30
6178;DHT22;3122;48.208;11.174;2022-11-13T19:04:08;3.60;36.50
6178;DHT22;3122;48.208;11.174;2022-11-13T19:09:14;3.70;38.90
6178;DHT22;3122;48.208;11.174;2022-11-13T19:14:16;3.80;39.00
6178;DHT22;3122;48.208;11.174;2022-11-13T19:19:20;3.90;40.10
6178;DHT22;3122;48.208;11.174;2022-11-13T19:24:20;3.90;39.50
6178;DHT22;3122;48.208;11.174;2022-11-13T19:29:21;4.00;40.80
6178;DHT22;3122;48.208;11.174;2022-11-13T19:34:22;4.10;41.10
6178;DHT22;3122;48.208;11.174;2022-11-13T19:39:22;4.10;41.00
6178;DHT22;3122;48.208;11.174;2022-11-13T19:44:24;4.10;41.70
6178;DHT22;3122;48.208;11.174;2022-11-13T19:49:24;4.10;42.10
6178;DHT22;3122;48.208;11.174;2022-11-13T19:54:25;4.30;43.50
6178;DHT22;3122;48.208;11.174;2022-11-13T19:59:26;4.30;43.50
6178;DHT22;3122;48.208;11.174;2022-11-13T20:04:26;4.20;44.00
6178;DHT22;3122;48.208;11.174;2022-11-13T20:09:28;4.30;45.00
6178;DHT22;3122;48.208;11.174;2022-11-13T20:14:28;4.40;44.50
6178;DHT22;3122;48.208;11.174;2022-11-13T20:19:29;4.40;44.70
6178;DHT22;3122;48.208;11.174;2022-11-13T20:24:29;4.40;44.90
6178;DHT22;3122;48.208;11.174;2022-11-13T20:29:31;4.40;45.70
6178;DHT22;3122;48.208;11.174;2022-11-13T20:34:31;4.50;45.80
6178;DHT22;3122;48.208;11.174;2022-11-13T20:39:33;4.50;46.00
6178;DHT22;3122;48.208;11.174;2022-11-13T20:44:34;4.60;46.30
6178;DHT22;3122;48.208;11.174;2022-11-13T20:49:34;4.50;44.60
6178;DHT22;3122;48.208;11.174;2022-11-13T20:54:42;4.50;45.30
6178;DHT22;3122;48.208;11.174;2022-11-13T20:59:42;4.40;53.50
6178;DHT22;3122;48.208;11.174;2022-11-13T21:04:43;4.50;47.00
6178;DHT22;3122;48.208;11.174;2022-11-13T21:09:44;4.50;73.60
6178;DHT22;3122;48.208;11.174;2022-11-13T21:14:44;4.60;89.60
6178;DHT22;3122;48.208;11.174;2022-11-13T21:19:45;4.60;88.30
6178;DHT22;3122;48.208;11.174;2022-11-13T21:24:46;4.60;86.40
6178;DHT22;3122;48.208;11.174;2022-11-13T21:29:46;4.50;85.60
6178;DHT22;3122;48.208;11.174;2022-11-13T21:34:47;4.60;85.50
6178;DHT22;3122;48.208;11.174;2022-11-13T21:39:47;4.60;84.80
6178;DHT22;3122;48.208;11.174;2022-11-13T21:44:48;4.50;85.20
6178;DHT22;3122;48.208;11.174;2022-11-13T21:49:48;4.60;85.50
6178;DHT22;3122;48.208;11.174;2022-11-13T21:54:49;4.50;85.70
6178;DHT22;3122;48.208;11.174;2022-11-13T21:59:49;4.50;85.90
6178;DHT22;3122;48.208;11.174;2022-11-13T22:04:50;4.50;86.60
6178;DHT22;3122;48.208;11.174;2022-11-13T22:09:51;4.60;87.50
6178;DHT22;3122;48.208;11.174;2022-11-13T22:14:51;4.60;87.80
6178;DHT22;3122;48.208;11.174;2022-11-13T22:19:52;4.60;88.00
6178;DHT22;3122;48.208;11.174;2022-11-13T22:24:52;4.60;88.40
6178;DHT22;3122;48.208;11.174;2022-11-13T22:29:53;4.60;88.30
6178;DHT22;3122;48.208;11.174;2022-11-13T22:34:54;4.50;88.60
6178;DHT22;3122;48.208;11.174;2022-11-13T22:39:54;4.50;88.70
6178;DHT22;3122;48.208;11.174;2022-11-13T22:44:55;4.60;89.50
6178;DHT22;3122;48.208;11.174;2022-11-13T22:49:55;4.60;89.50
6178;DHT22;3122;48.208;11.174;2022-11-13T22:54:57;4.60;89.90
6178;DHT22;3122;48.208;11.174;2022-11-13T22:59:58;4.60;89.80
6178;DHT22;3122;48.208;11.174;2022-11-13T23:04:58;4.60;89.70
6178;DHT22;3122;48.208;11.174;2022-11-13T23:09:59;4.60;89.70
6178;DHT22;3122;48.208;11.174;2022-11-13T23:14:59;4.60;90.00
6178;DHT22;3122;48.208;11.174;2022-11-13T23:20:00;4.60;90.00
6178;DHT22;3122;48.208;11.174;2022-11-13T23:25:00;4.70;90.10
6178;DHT22;3122;48.208;11.174;2022-11-13T23:30:01;4.60;90.10
6178;DHT22;3122;48.208;11.174;2022-11-13T23:35:02;4.70;89.70
6178;DHT22;3122;48.208;11.174;2022-11-13T23:40:02;4.70;89.60
6178;DHT22;3122;48.208;11.174;2022-11-13T23:45:03;4.70;88.80
6178;DHT22;3122;48.208;11.174;2022-11-13T23:50:05;4.60;88.60
6178;DHT22;3122;48.208;11.174;2022-11-13T23:55:06;4.70;88.30
